Airfield :
LOGIN :

Register | Disclaimer

   EN    FR    IT 

 










Legend :    VFR   Marginal VFR   IFR   Intensive IFR   Very Intensive IFR
Visi :
Ceiling :
>= 8 km
>= 3000ft
5 to 8 km
1000 to 3000 ft
1500m to 5 km
500 to 1000 ft
800 to 1500m
200 to 500 ft
< 800m
< 200 ft
Symbols :   Thunderstorms  Fog  Heavy snow  Heavy precipitations  Wind > 20 kt
SIGMETs :     Misc.  Thunderstorms  Icing  Turbulence  Mountain Waves  Volcanic Ashes






- Airport Elevation : 1516 ft
- IATA code : AGB


EDMA - Augsburg

CURRENT METAR :
  • 161020Z VRB02KT 6000 BKN005 OVC024 09/07 Q1022

EXPIRED METARs :
  • 160950Z 05004KT 360V080 4000 BR OVC004 09/08 Q1022
  • 160920Z 06005KT 3000 BR OVC004 08/08 Q1021
  • 160850Z 08005KT 3000 BR OVC004 09/08 Q1021
  • 160820Z 05005KT 020V080 5000 BR OVC005 08/07 Q1021
  • 160750Z VRB01KT 9999 OVC005 08/07 Q1021

TAF TAF EDMA
Valid from the 16 at 09:00 until the 16 at 18:00 UTC


160800Z 1609/1618 04004KT 9999 BKN006
BECMG 1609/1610 SCT012



MET'MAP, your aeronautical weather chart ! - Copyright ORBIFLY December 2007 - Disclaimer

ORBIFLY MET'MAP TEAM :

Programming & Development : Alexandra Zaïnal
Concept & original design : Baudouin d'Aumeries
Assistance for programming : Marc-Olivier Méhu
Technical & hardware support : Manuel Goepfert

Contact : metmap@orbifly.com




SOURCES & CREDITS :

   NOAA